Time;durP1;ratioP1;P1;durP2;ratioP2;P2;SDS_P1;SDS_P2;PMS_P1;PMS_P2;Temp;Humidity;BMP_temperature;BMP_pressure;BME280_temperature;BME280_humidity;BME280_pressure;Samples;Min_cycle;Max_cycle;Signal;HPM_P1;HPM_P2
2022/02/25 00:01:53;;;;;;;;;;;;;;;15.54;61.47;101534.63;5013119;28;1112199;-32
2022/02/25 00:04:20;;;;;;;;;;;;;;;15.52;60.92;101532.06;5053433;28;1088;-33
2022/02/25 00:06:46;;;;;;;;;;;;;;;15.51;61.86;101517.00;5052466;28;1767;-33
2022/02/25 00:09:12;;;;;;;;;;;;;;;15.52;61.23;101524.06;5056054;28;2080;-32
2022/02/25 00:11:39;;;;;;;;;;;;;;;15.54;61.03;101536.41;5056735;28;1801;-32
2022/02/25 00:14:07;;;;;;;;;;;;;;;15.48;61.84;101525.19;5056759;28;1903;-32
2022/02/25 00:16:33;;;;;;;;;;;;;;;15.50;61.60;101520.63;5056403;28;1630;-32
2022/02/25 00:19:00;;;;;;;;;;;;;;;15.48;60.92;101519.03;5056844;28;2326;-34
2022/02/25 00:21:26;;;;;;;;;;;;;;;15.49;60.89;101520.72;5056409;28;1972;-33
2022/02/25 00:23:52;;;;;;;;;;;;;;;15.48;62.51;101527.88;5056400;28;1857;-33
2022/02/25 00:26:19;;;;;;;;;;;;;;;15.51;62.23;101530.31;5056581;28;1844;-34
2022/02/25 00:28:45;;;;;;;;;;;;;;;15.48;62.06;101511.88;5056848;28;1068;-33
2022/02/25 00:31:13;;;;;;;;;;;;;;;15.51;60.57;101521.47;5056023;28;1832;-33
2022/02/25 00:33:40;;;;;;;;;;;;;;;15.49;61.56;101518.06;5056194;28;1748;-32
2022/02/25 00:36:06;;;;;;;;;;;;;;;15.47;60.72;101504.81;5056316;28;1720;-32
2022/02/25 00:38:33;;;;;;;;;;;;;;;15.47;60.86;101514.63;5055994;28;1906;-32
2022/02/25 00:40:59;;;;;;;;;;;;;;;15.45;62.07;101501.38;5055716;28;1628;-32
2022/02/25 00:43:26;;;;;;;;;;;;;;;15.45;60.84;101501.38;5056154;28;1903;-32
2022/02/25 00:45:52;;;;;;;;;;;;;;;15.44;62.19;101493.50;5055842;28;1412;-33
2022/02/25 00:48:20;;;;;;;;;;;;;;;15.47;61.22;101502.16;5056732;28;1077;-32
2022/02/25 00:50:47;;;;;;;;;;;;;;;15.49;60.89;101504.72;5055883;28;1880;-32
2022/02/25 00:53:13;;;;;;;;;;;;;;;15.45;61.98;101493.38;5055961;28;2067;-32
2022/02/25 00:55:39;;;;;;;;;;;;;;;15.46;60.88;101500.44;5056057;28;1879;-33
2022/02/25 00:58:06;;;;;;;;;;;;;;;15.43;62.09;101481.97;5055987;28;1734;-33
2022/02/25 01:00:32;;;;;;;;;;;;;;;15.44;61.82;101497.03;5051581;28;1906;-32
2022/02/25 01:02:59;;;;;;;;;;;;;;;15.44;61.24;101494.34;5055967;28;1333;-33
2022/02/25 01:05:27;;;;;;;;;;;;;;;15.43;61.16;101489.13;5056112;28;1946;-33
2022/02/25 01:07:53;;;;;;;;;;;;;;;15.43;60.88;101483.78;5055428;28;1702;-33
2022/02/25 01:10:20;;;;;;;;;;;;;;;15.41;60.78;101475.88;5055746;28;1795;-32
2022/02/25 01:12:47;;;;;;;;;;;;;;;15.42;61.00;101472.28;5055628;28;1476;-33
2022/02/25 01:15:14;;;;;;;;;;;;;;;15.42;61.17;101476.72;5056013;28;2116;-33
2022/02/25 01:17:41;;;;;;;;;;;;;;;15.42;61.90;101480.28;5055434;28;1142;-33
2022/02/25 01:20:09;;;;;;;;;;;;;;;15.42;61.18;101490.94;5054745;28;1961;-33
2022/02/25 01:22:37;;;;;;;;;;;;;;;15.40;61.98;101474.19;5056111;28;1063;-33
2022/02/25 01:25:03;;;;;;;;;;;;;;;15.39;60.82;101477.78;5055304;28;1867;-33
2022/02/25 01:27:31;;;;;;;;;;;;;;;15.42;60.99;101484.72;5055411;28;1799;-32
2022/02/25 01:29:58;;;;;;;;;;;;;;;15.40;60.43;101479.50;5055477;28;1692;-33
2022/02/25 01:32:24;;;;;;;;;;;;;;;15.37;61.57;101469.03;5055299;28;1853;-33
2022/02/25 01:34:50;;;;;;;;;;;;;;;15.39;60.84;101472.44;5055316;28;1912;-35
2022/02/25 01:37:17;;;;;;;;;;;;;;;15.38;61.07;101470.75;5054992;28;1866;-34
2022/02/25 01:39:45;;;;;;;;;;;;;;;15.36;60.94;101462.00;5055139;28;1906;-32
2022/02/25 01:42:11;;;;;;;;;;;;;;;15.37;61.79;101463.69;5055577;28;2011;-33
2022/02/25 01:44:40;;;;;;;;;;;;;;;15.37;61.73;101469.03;5055582;28;1995;-32
2022/02/25 01:47:07;;;;;;;;;;;;;;;15.39;60.85;101459.13;5055084;28;1847;-33
2022/02/25 01:49:33;;;;;;;;;;;;;;;15.32;62.12;101441.81;5056042;28;1000;-32
2022/02/25 01:52:01;;;;;;;;;;;;;;;15.36;61.49;101443.34;5055406;28;1768;-33
2022/02/25 01:54:27;;;;;;;;;;;;;;;15.35;61.35;101441.63;5054885;28;2010;-32
2022/02/25 01:56:57;;;;;;;;;;;;;;;15.38;60.62;101433.44;5054897;28;1869;-32
2022/02/25 01:59:23;;;;;;;;;;;;;;;15.37;60.25;101431.72;5054184;28;1910;-32
2022/02/25 02:01:50;;;;;;;;;;;;;;;15.37;60.95;101428.19;5054450;28;1595;-32
2022/02/25 02:04:17;;;;;;;;;;;;;;;15.31;61.13;101416.09;5055053;28;1080;-32
2022/02/25 02:06:43;;;;;;;;;;;;;;;15.35;60.74;101417.63;5054456;28;1756;-33
2022/02/25 02:09:10;;;;;;;;;;;;;;;15.35;60.42;101422.97;5054685;28;1726;-33
2022/02/25 02:11:37;;;;;;;;;;;;;;;15.37;60.89;101429.06;5054396;28;1660;-32
2022/02/25 02:14:07;;;;;;;;;;;;;;;15.36;60.36;101426.47;5054528;28;1814;-32
2022/02/25 02:16:33;;;;;;;;;;;;;;;15.36;60.29;101419.34;5054130;28;1750;-32
2022/02/25 02:18:59;;;;;;;;;;;;;;;15.34;60.87;101431.91;5054933;28;1983;-33
2022/02/25 02:21:27;;;;;;;;;;;;;;;15.34;61.95;101434.59;5054127;28;1991;-32
2022/02/25 02:23:55;;;;;;;;;;;;;;;15.32;61.97;101428.50;5054189;28;1593;-33
2022/02/25 02:26:21;;;;;;;;;;;;;;;15.34;61.63;101431.03;5054143;28;1765;-32
2022/02/25 02:28:48;;;;;;;;;;;;;;;15.33;60.81;101443.50;5054811;28;1035;-33
2022/02/25 02:31:15;;;;;;;;;;;;;;;15.33;60.91;101451.50;5053443;28;1936;-33
2022/02/25 02:33:41;;;;;;;;;;;;;;;15.33;61.95;101438.19;5053828;28;2018;-32
2022/02/25 02:36:08;;;;;;;;;;;;;;;15.30;60.98;101425.91;5053587;28;1593;-33
2022/02/25 02:38:34;;;;;;;;;;;;;;;15.29;61.67;101436.66;5054007;28;2146;-33
2022/02/25 02:41:02;;;;;;;;;;;;;;;15.29;60.38;101428.66;5053526;28;2019;-33
2022/02/25 02:43:29;;;;;;;;;;;;;;;15.35;61.62;101430.94;5053643;28;1743;-32
2022/02/25 02:45:56;;;;;;;;;;;;;;;15.29;60.50;101412.69;5053952;28;1839;-33
2022/02/25 02:48:22;;;;;;;;;;;;;;;15.28;60.54;101422.50;5054190;28;1095;-33
2022/02/25 02:50:48;;;;;;;;;;;;;;;15.29;62.10;101420.69;5053838;28;1811;-33
2022/02/25 02:53:15;;;;;;;;;;;;;;;15.29;60.63;101412.69;5053503;28;1729;-32
2022/02/25 02:55:42;;;;;;;;;;;;;;;15.28;61.31;101418.97;5053688;28;1667;-33
2022/02/25 02:58:10;;;;;;;;;;;;;;;15.26;61.06;101413.75;5053473;28;1585;-33
2022/02/25 03:00:37;;;;;;;;;;;;;;;15.24;60.56;101409.44;5154344;22;3651;-34
2022/02/25 03:03:04;;;;;;;;;;;;;;;15.27;60.82;101414.59;5002219;28;1850;-33
2022/02/25 03:05:30;;;;;;;;;;;;;;;15.25;61.29;101408.50;5005723;28;1919;-32
2022/02/25 03:07:57;;;;;;;;;;;;;;;15.26;61.04;101399.53;5004852;28;1918;-33
2022/02/25 03:10:24;;;;;;;;;;;;;;;15.24;61.68;101409.44;5003739;28;1696;-32
2022/02/25 03:12:50;;;;;;;;;;;;;;;15.22;61.86;101403.34;5003572;28;1656;-33
2022/02/25 03:15:19;;;;;;;;;;;;;;;15.22;61.30;101403.34;5003806;28;1629;-32
2022/02/25 03:17:45;;;;;;;;;;;;;;;15.27;61.10;101418.09;5005713;28;1526;-32
2022/02/25 03:20:13;;;;;;;;;;;;;;;15.22;61.70;101411.34;5006545;28;1910;-32
2022/02/25 03:22:39;;;;;;;;;;;;;;;15.23;61.61;101418.41;5002203;28;1593;-33
2022/02/25 03:25:06;;;;;;;;;;;;;;;15.25;61.57;101429.81;5007697;28;1652;-32
2022/02/25 03:27:32;;;;;;;;;;;;;;;15.24;61.72;101415.66;5002736;28;1649;-32
2022/02/25 03:29:59;;;;;;;;;;;;;;;15.23;60.35;101419.25;5004247;28;1751;-32
2022/02/25 03:32:27;;;;;;;;;;;;;;;15.24;61.01;101410.31;5006121;28;1640;-33
2022/02/25 03:34:53;;;;;;;;;;;;;;;15.26;60.78;101411.06;5003279;28;1810;-34
2022/02/25 03:37:20;;;;;;;;;;;;;;;15.24;60.31;101414.75;5004499;28;1467;-33
2022/02/25 03:39:47;;;;;;;;;;;;;;;15.24;60.66;101409.44;5001494;28;1910;-33
2022/02/25 03:42:13;;;;;;;;;;;;;;;15.24;60.29;101405.00;5001648;28;1703;-32
2022/02/25 03:44:40;;;;;;;;;;;;;;;15.23;61.67;101402.41;5002597;28;1608;-32
2022/02/25 03:47:06;;;;;;;;;;;;;;;15.22;61.88;101403.34;5004146;28;1535;-32
2022/02/25 03:49:34;;;;;;;;;;;;;;;15.21;60.99;101410.50;5011632;28;1012;-32
2022/02/25 03:52:01;;;;;;;;;;;;;;;15.20;60.70;101408.78;5001804;28;1763;-32
2022/02/25 03:54:27;;;;;;;;;;;;;;;15.21;60.69;101409.66;5007325;28;1872;-33
2022/02/25 03:56:54;;;;;;;;;;;;;;;15.21;61.16;101404.31;4999145;28;1883;-32
2022/02/25 03:59:20;;;;;;;;;;;;;;;15.19;60.66;101390.25;5003854;28;1967;-33
2022/02/25 04:01:51;;;;;;;;;;;;;;;15.17;61.21;101389.47;5022378;28;1575;-32
2022/02/25 04:04:18;;;;;;;;;;;;;;;15.18;61.08;101399.16;5048932;28;994;-32
2022/02/25 04:06:46;;;;;;;;;;;;;;;15.17;60.47;101402.78;5041169;28;1800;-32
2022/02/25 04:09:12;;;;;;;;;;;;;;;15.17;60.95;101394.81;5038529;28;1631;-32
2022/02/25 04:11:39;;;;;;;;;;;;;;;15.17;60.22;101400.97;5043196;28;1469;-32
2022/02/25 04:14:06;;;;;;;;;;;;;;;15.20;61.56;101399.94;5043341;28;1660;-32
2022/02/25 04:16:32;;;;;;;;;;;;;;;15.17;61.62;101392.97;5044173;28;1662;-32
2022/02/25 04:18:58;;;;;;;;;;;;;;;15.18;61.43;101410.69;5045863;28;1223;-32
2022/02/25 04:21:25;;;;;;;;;;;;;;;15.16;61.42;101420.59;5043366;28;1966;-32
2022/02/25 04:23:53;;;;;;;;;;;;;;;15.17;60.16;101418.78;5048997;28;1641;-32
2022/02/25 04:26:20;;;;;;;;;;;;;;;15.14;61.21;101419.84;5037128;28;1927;-33
2022/02/25 04:28:46;;;;;;;;;;;;;;;15.15;60.89;101415.34;5044769;28;1077;-32
2022/02/25 04:31:13;;;;;;;;;;;;;;;15.13;59.99;101401.28;5044707;28;1763;-32
2022/02/25 04:33:39;;;;;;;;;;;;;;;15.15;61.72;101405.53;5038591;28;1657;-33
2022/02/25 04:36:06;;;;;;;;;;;;;;;15.13;60.67;101395.94;5046107;28;1886;-32
2022/02/25 04:38:32;;;;;;;;;;;;;;;15.10;61.58;101397.00;5042507;28;1866;-33
2022/02/25 04:41:01;;;;;;;;;;;;;;;15.17;61.56;101413.44;5045274;28;1977;-32
2022/02/25 04:43:28;;;;;;;;;;;;;;;15.11;61.19;101410.19;5035991;28;1839;-32
2022/02/25 04:45:54;;;;;;;;;;;;;;;15.14;59.64;101397.63;5044281;28;1782;-33
2022/02/25 04:48:21;;;;;;;;;;;;;;;15.09;61.16;101395.28;5042062;28;1012;-32
2022/02/25 04:50:48;;;;;;;;;;;;;;;15.10;60.66;101397.84;5038543;28;1658;-33
2022/02/25 04:53:14;;;;;;;;;;;;;;;15.13;60.18;101401.28;5041515;28;1623;-32
2022/02/25 04:55:41;;;;;;;;;;;;;;;15.15;60.43;101404.69;5044058;28;1492;-32
2022/02/25 04:58:09;;;;;;;;;;;;;;;15.16;61.51;101393.06;5044638;28;1490;-32
2022/02/25 05:00:35;;;;;;;;;;;;;;;15.13;60.60;101383.47;5036918;28;1902;-33
2022/02/25 05:03:02;;;;;;;;;;;;;;;15.13;59.97;101386.13;5046576;28;1432;-32
2022/02/25 05:05:28;;;;;;;;;;;;;;;15.09;61.40;101390.78;5038702;28;1858;-32
2022/02/25 05:07:55;;;;;;;;;;;;;;;15.08;60.05;101389.09;5046655;28;1559;-32
2022/02/25 05:10:22;;;;;;;;;;;;;;;15.16;60.54;101404.63;4347732;28;10000844;-34
2022/02/25 05:12:48;;;;;;;;;;;;;;;15.09;59.89;101380.13;5038916;28;1693;-35
2022/02/25 05:20:44;;;;;;;;;;;;;;;15.08;61.36;101391.75;5044793;28;1981;-34
2022/02/25 05:23:11;;;;;;;;;;;;;;;15.09;60.67;101405.94;5043427;28;1275;-34
2022/02/25 05:25:39;;;;;;;;;;;;;;;15.10;60.05;101395.19;5037582;28;1919;-34
2022/02/25 05:28:05;;;;;;;;;;;;;;;15.13;60.56;101402.13;5042575;28;1673;-33
2022/02/25 05:30:33;;;;;;;;;;;;;;;15.14;61.32;101395.84;5034126;28;1508;-34
2022/02/25 05:32:59;;;;;;;;;;;;;;;15.22;60.86;101395.34;5030997;28;1665;-34
2022/02/25 05:35:26;;;;;;;;;;;;;;;15.34;60.15;101409.72;5033686;28;1465;-34
2022/02/25 05:37:52;;;;;;;;;;;;;;;15.31;61.13;101400.13;5031108;28;1344;-34
2022/02/25 05:40:20;;;;;;;;;;;;;;;15.32;59.63;101396.53;5040254;28;1977;-33
2022/02/25 05:42:48;;;;;;;;;;;;;;;15.41;60.73;101395.06;5052793;28;1434;-34
2022/02/25 05:45:15;;;;;;;;;;;;;;;15.48;58.73;101389.25;5054191;28;1677;-34
2022/02/25 05:47:43;;;;;;;;;;;;;;;15.42;59.03;101380.78;5055074;28;1727;-33
2022/02/25 05:50:11;;;;;;;;;;;;;;;15.30;60.69;101377.09;5055427;28;1072;-33
2022/02/25 05:52:37;;;;;;;;;;;;;;;15.31;60.29;101384.13;5057169;28;1152;-34
2022/02/25 05:55:04;;;;;;;;;;;;;;;15.29;59.74;101380.72;5056636;28;1538;-33
2022/02/25 05:57:31;;;;;;;;;;;;;;;15.18;61.36;101383.19;5055849;28;1446;-33
2022/02/25 05:59:57;;;;;;;;;;;;;;;15.23;60.67;101381.94;5054812;28;1992;-34
2022/02/25 06:02:24;;;;;;;;;;;;;;;15.21;59.60;101378.53;5054362;28;1618;-34
2022/02/25 06:04:51;;;;;;;;;;;;;;;15.28;59.74;101390.53;5054043;28;1402;-34
2022/02/25 06:07:18;;;;;;;;;;;;;;;15.21;59.48;101372.34;5054702;28;1410;-34
2022/02/25 06:09:45;;;;;;;;;;;;;;;15.20;59.76;101389.25;5055347;28;1083;-34
2022/02/25 06:12:11;;;;;;;;;;;;;;;15.18;58.90;101372.53;5055168;28;1637;-34
2022/02/25 06:14:38;;;;;;;;;;;;;;;15.23;59.12;101375.75;5055076;28;1402;-34
2022/02/25 06:17:04;;;;;;;;;;;;;;;15.24;58.50;101377.47;5050926;28;1391;-35
2022/02/25 06:19:30;;;;;;;;;;;;;;;15.21;59.68;101353.69;5046807;28;1350;-35
2022/02/25 06:21:58;;;;;;;;;;;;;;;15.26;59.09;101365.78;5054522;28;1906;-35
2022/02/25 06:24:25;;;;;;;;;;;;;;;15.26;60.23;101364.91;5052818;28;1158;-35
2022/02/25 06:26:51;;;;;;;;;;;;;;;15.28;58.81;101371.88;5053806;28;1074;-34
2022/02/25 06:29:18;;;;;;;;;;;;;;;15.31;59.79;101374.31;5054809;28;1007;-34
2022/02/25 06:31:44;;;;;;;;;;;;;;;15.34;59.65;101367.09;5055050;28;1044;-34
2022/02/25 06:34:11;;;;;;;;;;;;;;;15.33;60.19;101371.56;5054789;28;992;-34
2022/02/25 06:36:38;;;;;;;;;;;;;;;15.34;59.69;101383.06;5054525;28;1076;-34
2022/02/25 06:39:06;;;;;;;;;;;;;;;15.35;59.82;101383.00;5054487;28;1182;-34
2022/02/25 06:41:33;;;;;;;;;;;;;;;15.36;60.20;101382.03;5054360;28;1977;-34
2022/02/25 06:43:59;;;;;;;;;;;;;;;15.39;59.73;101381.84;5054445;28;1088;-34
2022/02/25 06:46:26;;;;;;;;;;;;;;;15.41;58.57;101377.25;5054298;28;1091;-34
2022/02/25 06:48:52;;;;;;;;;;;;;;;15.39;58.50;101371.19;5054378;28;1083;-34
2022/02/25 06:51:19;;;;;;;;;;;;;;;15.40;59.96;101367.56;5054652;28;1046;-34
2022/02/25 06:53:45;;;;;;;;;;;;;;;15.45;59.87;101375.28;5054528;28;999;-34
2022/02/25 06:56:13;;;;;;;;;;;;;;;15.47;58.78;101395.53;5054157;28;1154;-34
2022/02/25 06:58:40;;;;;;;;;;;;;;;15.44;59.91;101387.75;5054431;28;1089;-34
2022/02/25 07:01:06;;;;;;;;;;;;;;;15.45;59.00;101392.09;5053888;28;1910;-34
2022/02/25 07:03:33;;;;;;;;;;;;;;;15.50;58.83;101384.69;5054047;28;1087;-34
2022/02/25 07:05:59;;;;;;;;;;;;;;;15.47;58.50;101378.69;5054259;28;1171;-34
2022/02/25 07:08:26;;;;;;;;;;;;;;;15.48;59.46;101378.59;5054291;28;1088;-34
2022/02/25 07:10:52;;;;;;;;;;;;;;;15.45;60.06;101354.78;5054256;28;1081;-34
2022/02/25 07:13:20;;;;;;;;;;;;;;;15.48;58.78;101375.94;5053889;28;1186;-34
2022/02/25 07:15:46;;;;;;;;;;;;;;;15.49;58.81;101361.63;5054126;28;1091;-34
2022/02/25 07:18:15;;;;;;;;;;;;;;;15.55;59.29;101367.53;5053395;28;1159;-34
2022/02/25 07:20:42;;;;;;;;;;;;;;;15.56;58.58;101366.56;5053976;28;1906;-34
2022/02/25 07:23:09;;;;;;;;;;;;;;;15.59;58.42;101372.56;5054080;28;1089;-33
2022/02/25 07:25:35;;;;;;;;;;;;;;;15.55;58.42;101359.53;5054006;28;1011;-34
2022/02/25 07:28:01;;;;;;;;;;;;;;;15.56;58.90;101371.91;5053942;28;1023;-34
2022/02/25 07:30:29;;;;;;;;;;;;;;;15.54;58.67;101369.38;5053855;28;1067;-34
2022/02/25 07:32:56;;;;;;;;;;;;;;;15.55;59.51;101362.22;5053893;28;1000;-34
2022/02/25 07:35:22;;;;;;;;;;;;;;;15.58;59.12;101362.00;5053542;28;1174;-34
2022/02/25 07:37:49;;;;;;;;;;;;;;;15.56;60.12;101345.25;5053811;28;1074;-34
2022/02/25 07:40:16;;;;;;;;;;;;;;;15.54;59.45;101342.72;5053805;28;1006;-34
2022/02/25 07:42:42;;;;;;;;;;;;;;;15.58;59.02;101356.66;5053881;28;1906;-34
2022/02/25 07:45:09;;;;;;;;;;;;;;;15.63;59.33;101370.56;5053441;28;1277;-33
2022/02/25 07:47:38;;;;;;;;;;;;;;;15.57;58.53;101352.31;5053429;28;1072;-33
2022/02/25 07:50:05;;;;;;;;;;;;;;;15.62;59.11;101377.72;5053687;28;1007;-34
2022/02/25 07:52:31;;;;;;;;;;;;;;;15.59;59.00;101366.41;5053639;28;1075;-33
2022/02/25 07:54:57;;;;;;;;;;;;;;;15.61;58.98;101367.16;5053560;28;1164;-33
2022/02/25 07:57:24;;;;;;;;;;;;;;;15.61;58.62;101359.16;5053591;28;1081;-33
2022/02/25 07:59:50;;;;;;;;;;;;;;;15.60;59.05;101355.63;5053580;28;1011;-33
2022/02/25 08:02:17;;;;;;;;;;;;;;;15.63;58.89;101357.25;5052954;28;1910;-33
2022/02/25 08:04:45;;;;;;;;;;;;;;;15.62;58.81;101360.88;5053471;28;1084;-33
2022/02/25 08:07:11;;;;;;;;;;;;;;;15.61;58.79;101354.66;5053201;28;1092;-33
2022/02/25 08:09:37;;;;;;;;;;;;;;;15.63;59.05;101358.09;5053121;28;1188;-33
2022/02/25 08:12:04;;;;;;;;;;;;;;;15.65;58.60;101358.84;5053149;28;1104;-33
2022/02/25 08:14:35;;;;;;;;;;;;;;;15.63;58.82;101349.25;5053693;28;1083;-33
2022/02/25 08:17:02;;;;;;;;;;;;;;;15.67;58.48;101361.41;5053319;28;1019;-33
2022/02/25 08:19:28;;;;;;;;;;;;;;;15.64;59.28;101335.81;5053021;28;1096;-33
2022/02/25 08:21:56;;;;;;;;;;;;;;;15.67;58.51;101359.59;5053013;28;1975;-33
2022/02/25 08:24:22;;;;;;;;;;;;;;;15.64;59.26;101342.97;5053318;28;1019;-33
2022/02/25 08:26:49;;;;;;;;;;;;;;;15.65;58.44;101347.34;5053352;28;1007;-34
2022/02/25 08:29:15;;;;;;;;;;;;;;;15.67;58.56;101334.75;5054978;28;1047;-33
2022/02/25 08:31:43;;;;;;;;;;;;;;;15.66;58.85;101341.06;5057196;28;1081;-33
2022/02/25 08:34:10;;;;;;;;;;;;;;;15.71;58.69;101349.59;5056757;28;1151;-33
2022/02/25 08:36:36;;;;;;;;;;;;;;;15.70;58.47;101342.56;5057163;28;1055;-33
2022/02/25 08:39:04;;;;;;;;;;;;;;;15.71;59.06;101339.78;5057099;28;1100;-33
2022/02/25 08:41:31;;;;;;;;;;;;;;;15.73;59.52;101336.22;5056913;28;1906;-34
2022/02/25 08:43:57;;;;;;;;;;;;;;;15.73;59.29;101342.38;5057018;28;1010;-33
2022/02/25 08:46:24;;;;;;;;;;;;;;;15.75;58.87;101334.28;5056936;28;994;-33
2022/02/25 08:48:50;;;;;;;;;;;;;;;15.75;59.12;101326.28;5056920;28;1059;-33
2022/02/25 08:51:17;;;;;;;;;;;;;;;15.80;58.34;101345.53;5057353;28;1134;-33
2022/02/25 08:53:43;;;;;;;;;;;;;;;15.77;58.43;101341.22;5056843;28;1015;-33
2022/02/25 08:56:11;;;;;;;;;;;;;;;15.82;58.29;101336.47;5056723;28;1019;-34
2022/02/25 08:58:37;;;;;;;;;;;;;;;15.78;59.94;101334.97;5056743;28;1000;-33
2022/02/25 09:01:04;;;;;;;;;;;;;;;15.83;59.80;101342.66;5056383;28;1993;-33
2022/02/25 09:03:30;;;;;;;;;;;;;;;15.84;58.95;101339.88;5056178;28;2058;-34
2022/02/25 09:05:57;;;;;;;;;;;;;;;15.82;59.72;101325.78;5056249;28;1167;-34
2022/02/25 09:08:23;;;;;;;;;;;;;;;15.86;58.44;101335.31;5056600;28;1007;-34
2022/02/25 09:10:50;;;;;;;;;;;;;;;15.83;59.40;101322.16;5057774;28;1079;-34
2022/02/25 09:13:18;;;;;;;;;;;;;;;15.84;59.45;101328.38;5056722;28;1075;-33
2022/02/25 09:15:44;;;;;;;;;;;;;;;15.84;59.30;101325.69;5056082;28;1136;-34
2022/02/25 09:18:11;;;;;;;;;;;;;;;15.87;59.80;101333.47;5055944;28;1147;-33
2022/02/25 09:20:38;;;;;;;;;;;;;;;15.90;58.75;101323.47;5056053;28;1088;-33
2022/02/25 09:23:05;;;;;;;;;;;;;;;15.89;59.30;101323.56;5056168;28;1902;-34
2022/02/25 09:25:31;;;;;;;;;;;;;;;15.90;59.27;101325.28;5055869;28;1100;-34
2022/02/25 09:27:58;;;;;;;;;;;;;;;15.91;58.56;101327.84;5056724;28;992;-34
2022/02/25 09:30:26;;;;;;;;;;;;;;;15.90;59.32;101314.63;5056022;28;1080;-34
2022/02/25 09:32:53;;;;;;;;;;;;;;;15.88;59.11;101304.06;5056090;28;1050;-34
2022/02/25 09:35:19;;;;;;;;;;;;;;;15.88;58.25;101304.06;5056046;28;995;-34
2022/02/25 09:37:46;;;;;;;;;;;;;;;15.90;59.03;101295.97;5055649;28;1083;-34
2022/02/25 09:40:14;;;;;;;;;;;;;;;15.89;58.19;101303.06;5055622;28;1072;-34
2022/02/25 09:42:42;;;;;;;;;;;;;;;15.87;59.89;101275.66;5055952;28;1975;-34
2022/02/25 09:45:10;;;;;;;;;;;;;;;15.94;58.27;101293.94;5055554;28;1084;-34
2022/02/25 09:47:38;;;;;;;;;;;;;;;15.90;58.65;101271.94;5055472;28;1314;-34
2022/02/25 09:50:05;;;;;;;;;;;;;;;15.90;59.21;101282.63;5055757;28;1059;-34
2022/02/25 09:52:32;;;;;;;;;;;;;;;15.91;58.77;101282.50;5055408;28;1088;-34
2022/02/25 09:54:59;;;;;;;;;;;;;;;15.90;58.63;101275.47;5056417;28;1006;-34
2022/02/25 09:57:25;;;;;;;;;;;;;;;15.90;58.96;101258.63;5055641;28;1090;-33
2022/02/25 09:59:52;;;;;;;;;;;;;;;15.90;58.90;101269.28;5055511;28;1088;-34
2022/02/25 10:02:19;;;;;;;;;;;;;;;15.92;59.33;101272.69;5054953;28;1954;-33
2022/02/25 10:04:46;;;;;;;;;;;;;;;15.96;59.20;101262.69;5055208;28;1233;-34
2022/02/25 10:07:25;;;;;;;;;;;;;;;15.95;59.62;101250.28;5055393;28;999;-34
2022/02/25 10:09:52;;;;;;;;;;;;;;;15.94;59.60;101259.28;5055423;28;1074;-34
2022/02/25 10:12:19;;;;;;;;;;;;;;;15.97;58.22;101259.03;5055055;28;1100;-34
2022/02/25 10:14:48;;;;;;;;;;;;;;;15.95;59.81;101255.63;5054982;28;1072;-34
2022/02/25 10:17:15;;;;;;;;;;;;;;;15.97;58.66;101248.38;5055185;28;1083;-34
2022/02/25 10:19:43;;;;;;;;;;;;;;;15.96;59.77;101241.34;5055437;28;1095;-34
2022/02/25 10:22:15;;;;;;;;;;;;;;;15.95;59.79;101240.47;5055101;28;1906;-33
2022/02/25 10:24:46;;;;;;;;;;;;;;;15.96;59.93;101239.53;5055103;28;1074;-34
2022/02/25 10:27:23;;;;;;;;;;;;;;;16.01;59.77;101236.53;5055008;28;1179;-34
2022/02/25 10:30:01;;;;;;;;;;;;;;;15.99;58.95;101222.44;5055003;28;995;-34
2022/02/25 10:32:29;;;;;;;;;;;;;;;15.97;59.51;101227.03;5054959;28;1006;-34
2022/02/25 10:34:55;;;;;;;;;;;;;;;16.00;59.69;101219.69;5054605;28;1095;-33
2022/02/25 10:37:23;;;;;;;;;;;;;;;15.97;59.48;101221.69;5054895;28;1071;-33
2022/02/25 10:39:50;;;;;;;;;;;;;;;15.97;58.96;101211.03;5055074;28;1184;-34
2022/02/25 10:42:19;;;;;;;;;;;;;;;16.00;59.03;101217.03;5054353;28;1973;-33
2022/02/25 10:44:47;;;;;;;;;;;;;;;16.01;59.53;101197.38;5054705;28;1067;-33
2022/02/25 10:47:15;;;;;;;;;;;;;;;16.00;59.79;101194.84;5054593;28;1055;-33
2022/02/25 10:49:41;;;;;;;;;;;;;;;15.98;59.86;101202.09;5054625;28;1010;-34
2022/02/25 10:52:19;;;;;;;;;;;;;;;15.99;59.63;101185.09;5053993;28;1007;-34
2022/02/25 10:54:47;;;;;;;;;;;;;;;15.95;59.61;101179.13;5054466;28;1065;-33
2022/02/25 10:57:13;;;;;;;;;;;;;;;15.99;58.73;101177.94;5054220;28;1100;-34
2022/02/25 10:59:42;;;;;;;;;;;;;;;16.01;59.76;101185.84;5054096;28;1178;-34
2022/02/25 11:02:22;;;;;;;;;;;;;;;15.98;58.28;101172.75;5054000;28;1906;-33
2022/02/25 11:04:58;;;;;;;;;;;;;;;15.98;59.78;101164.75;5054321;28;1031;-33
2022/02/25 11:07:25;;;;;;;;;;;;;;;15.98;59.06;101152.25;5053963;28;1147;-33
2022/02/25 11:09:53;;;;;;;;;;;;;;;16.00;58.49;101152.16;5054266;28;1085;-33
2022/02/25 11:12:19;;;;;;;;;;;;;;;16.02;60.06;101151.06;5054486;28;1080;-33
2022/02/25 11:14:46;;;;;;;;;;;;;;;15.99;58.66;101150.44;5053890;28;1071;-33
2022/02/25 11:17:13;;;;;;;;;;;;;;;16.00;58.29;101146.81;5053750;28;1104;-34
2022/02/25 11:19:40;;;;;;;;;;;;;;;16.00;59.91;101141.47;5054116;28;1085;-34
2022/02/25 11:22:07;;;;;;;;;;;;;;;15.99;59.68;101132.59;5053989;28;1926;-34
2022/02/25 11:24:37;;;;;;;;;;;;;;;16.03;59.52;101134.09;5054010;28;1082;-34
2022/02/25 11:27:05;;;;;;;;;;;;;;;16.05;59.38;101131.31;5053658;28;1139;-33
2022/02/25 11:29:34;;;;;;;;;;;;;;;16.04;58.48;101121.63;5053512;28;1088;-34
2022/02/25 11:32:02;;;;;;;;;;;;;;;16.09;58.18;101132.81;5053657;28;1088;-33
2022/02/25 11:34:29;;;;;;;;;;;;;;;16.08;59.84;101117.78;5053856;28;1067;-33
2022/02/25 11:36:55;;;;;;;;;;;;;;;16.07;59.56;101122.25;5053570;28;1158;-33
2022/02/25 11:39:22;;;;;;;;;;;;;;;16.04;59.27;101117.16;5053714;28;1081;-34
2022/02/25 11:41:50;;;;;;;;;;;;;;;16.03;59.55;101114.56;5053636;28;1906;-34
2022/02/25 11:44:17;;;;;;;;;;;;;;;16.04;59.77;101116.31;5053457;28;1175;-34
2022/02/25 11:46:44;;;;;;;;;;;;;;;16.06;59.68;101104.56;5053694;28;1011;-33
2022/02/25 11:49:19;;;;;;;;;;;;;;;16.05;59.63;101101.97;5053418;28;1080;-33
2022/02/25 11:51:56;;;;;;;;;;;;;;;16.04;59.63;101103.81;5053370;28;1100;-33
2022/02/25 11:54:26;;;;;;;;;;;;;;;16.06;59.88;101114.38;5053280;28;1127;-33
2022/02/25 11:57:12;;;;;;;;;;;;;;;16.04;59.71;101113.63;5053564;28;1094;-33
2022/02/25 11:59:55;;;;;;;;;;;;;;;16.07;59.85;101106.25;5053261;28;1067;-33
2022/02/25 12:02:25;;;;;;;;;;;;;;;16.07;60.04;101105.41;5052673;28;2978;-33
2022/02/25 12:05:11;;;;;;;;;;;;;;;16.05;59.48;101096.66;5057693;28;1136;-33
2022/02/25 12:07:40;;;;;;;;;;;;;;;16.04;59.72;101100.28;5057697;28;1054;-33
2022/02/25 12:10:14;;;;;;;;;;;;;;;16.05;59.61;101097.50;5057630;28;992;-33
2022/02/25 12:12:41;;;;;;;;;;;;;;;16.02;58.70;101091.53;5057546;28;1080;-33
2022/02/25 12:15:12;;;;;;;;;;;;;;;16.05;58.71;101085.97;5057605;28;992;-33
2022/02/25 12:17:41;;;;;;;;;;;;;;;16.04;59.32;101089.63;5057373;28;2057;-33
2022/02/25 12:20:09;;;;;;;;;;;;;;;16.03;58.46;101085.22;5057209;28;1068;-33
2022/02/25 12:22:49;;;;;;;;;;;;;;;16.03;58.73;101082.56;5057111;28;1953;-33
2022/02/25 12:25:35;;;;;;;;;;;;;;;16.06;58.92;101082.38;5057103;28;1154;-33
2022/02/25 12:28:03;;;;;;;;;;;;;;;15.99;59.49;101071.25;5057247;28;1480;-34
2022/02/25 12:30:36;;;;;;;;;;;;;;;16.02;59.88;101072.88;5057185;28;1003;-34
2022/02/25 12:33:27;;;;;;;;;;;;;;;16.01;60.21;101073.81;5057250;28;1055;-33
2022/02/25 12:35:56;;;;;;;;;;;;;;;16.01;58.82;101063.16;5057117;28;1043;-33
2022/02/25 12:38:23;;;;;;;;;;;;;;;16.03;59.80;101066.56;5056831;28;1135;-33
2022/02/25 12:40:50;;;;;;;;;;;;;;;16.01;60.19;101060.47;5057078;28;1077;-34
2022/02/25 12:43:18;;;;;;;;;;;;;;;16.02;60.33;101060.38;5056942;28;1986;-33
2022/02/25 12:45:44;;;;;;;;;;;;;;;16.00;60.03;101040.13;5056674;28;1151;-34
2022/02/25 12:48:12;;;;;;;;;;;;;;;16.00;60.24;101050.78;5056585;28;1087;-33
2022/02/25 12:50:42;;;;;;;;;;;;;;;15.98;60.05;101036.72;5056631;28;1099;-34
2022/02/25 12:53:09;;;;;;;;;;;;;;;16.00;59.31;101050.78;5056583;28;1080;-33
2022/02/25 12:55:35;;;;;;;;;;;;;;;15.99;59.59;101051.75;5056485;28;1152;-33